sensor_id;sensor_type;location;lat;lon;timestamp;P1;durP1;ratioP1;P2;durP2;ratioP2
33421;SDS011;19763;55.798;37.782;2024-03-17T00:02:29;26.33;;;11.57;;
33421;SDS011;19763;55.798;37.782;2024-03-17T00:14:47;39.15;;;13.40;;
33421;SDS011;19763;55.798;37.782;2024-03-17T00:17:39;37.47;;;12.70;;
33421;SDS011;19763;55.798;37.782;2024-03-17T00:32:49;27.88;;;12.55;;
33421;SDS011;19763;55.798;37.782;2024-03-17T00:35:33;29.23;;;12.48;;
33421;SDS011;19763;55.798;37.782;2024-03-17T00:38:04;27.52;;;12.95;;
33421;SDS011;19763;55.798;37.782;2024-03-17T00:41:02;33.75;;;13.30;;
33421;SDS011;19763;55.798;37.782;2024-03-17T00:44:10;32.63;;;13.68;;
33421;SDS011;19763;55.798;37.782;2024-03-17T00:46:42;23.45;;;12.15;;
33421;SDS011;19763;55.798;37.782;2024-03-17T00:49:50;30.10;;;12.52;;
33421;SDS011;19763;55.798;37.782;2024-03-17T00:52:24;30.65;;;13.85;;
33421;SDS011;19763;55.798;37.782;2024-03-17T00:55:01;35.72;;;14.38;;
33421;SDS011;19763;55.798;37.782;2024-03-17T01:01:03;28.45;;;14.30;;
33421;SDS011;19763;55.798;37.782;2024-03-17T01:06:53;30.20;;;14.07;;
33421;SDS011;19763;55.798;37.782;2024-03-17T01:18:37;29.92;;;14.73;;
33421;SDS011;19763;55.798;37.782;2024-03-17T01:21:33;42.65;;;15.90;;
33421;SDS011;19763;55.798;37.782;2024-03-17T01:24:02;36.70;;;15.52;;
33421;SDS011;19763;55.798;37.782;2024-03-17T01:26:36;35.70;;;16.25;;
33421;SDS011;19763;55.798;37.782;2024-03-17T01:29:26;36.33;;;16.63;;
33421;SDS011;19763;55.798;37.782;2024-03-17T01:39:15;38.13;;;16.63;;
33421;SDS011;19763;55.798;37.782;2024-03-17T01:41:52;29.67;;;14.80;;
33421;SDS011;19763;55.798;37.782;2024-03-17T01:54:10;42.42;;;17.45;;
33421;SDS011;19763;55.798;37.782;2024-03-17T01:56:40;32.17;;;16.80;;
33421;SDS011;19763;55.798;37.782;2024-03-17T01:59:15;31.58;;;17.70;;
33421;SDS011;19763;55.798;37.782;2024-03-17T02:05:01;44.05;;;18.30;;
33421;SDS011;19763;55.798;37.782;2024-03-17T02:10:56;35.55;;;17.35;;
33421;SDS011;19763;55.798;37.782;2024-03-17T02:26:13;35.83;;;17.73;;
33421;SDS011;19763;55.798;37.782;2024-03-17T02:28:57;43.03;;;18.35;;
33421;SDS011;19763;55.798;37.782;2024-03-17T02:38:02;30.20;;;16.65;;
33421;SDS011;19763;55.798;37.782;2024-03-17T02:40:33;42.58;;;18.25;;
33421;SDS011;19763;55.798;37.782;2024-03-17T02:46:06;36.35;;;17.98;;
33421;SDS011;19763;55.798;37.782;2024-03-17T02:48:59;42.05;;;18.88;;
33421;SDS011;19763;55.798;37.782;2024-03-17T02:51:38;35.58;;;17.70;;
33421;SDS011;19763;55.798;37.782;2024-03-17T02:54:44;42.55;;;18.50;;
33421;SDS011;19763;55.798;37.782;2024-03-17T02:57:22;36.53;;;17.92;;
33421;SDS011;19763;55.798;37.782;2024-03-17T03:00:15;41.75;;;19.75;;
33421;SDS011;19763;55.798;37.782;2024-03-17T03:12:43;41.67;;;18.48;;
33421;SDS011;19763;55.798;37.782;2024-03-17T03:17:55;41.88;;;18.48;;
33421;SDS011;19763;55.798;37.782;2024-03-17T03:20:32;34.30;;;17.00;;
33421;SDS011;19763;55.798;37.782;2024-03-17T03:32:06;41.17;;;19.70;;
33421;SDS011;19763;55.798;37.782;2024-03-17T03:34:49;42.75;;;19.00;;
33421;SDS011;19763;55.798;37.782;2024-03-17T03:37:18;39.15;;;17.50;;
33421;SDS011;19763;55.798;37.782;2024-03-17T03:40:14;38.78;;;19.13;;
33421;SDS011;19763;55.798;37.782;2024-03-17T03:46:04;43.83;;;19.30;;
33421;SDS011;19763;55.798;37.782;2024-03-17T03:54:02;49.63;;;19.92;;
33421;SDS011;19763;55.798;37.782;2024-03-17T03:56:34;42.92;;;18.55;;
33421;SDS011;19763;55.798;37.782;2024-03-17T04:02:53;42.35;;;20.23;;
33421;SDS011;19763;55.798;37.782;2024-03-17T04:05:37;42.03;;;19.63;;
33421;SDS011;19763;55.798;37.782;2024-03-17T04:08:12;44.38;;;19.92;;
33421;SDS011;19763;55.798;37.782;2024-03-17T04:17:30;39.70;;;18.70;;
33421;SDS011;19763;55.798;37.782;2024-03-17T04:20:08;40.65;;;19.52;;
33421;SDS011;19763;55.798;37.782;2024-03-17T04:22:41;49.50;;;19.83;;
33421;SDS011;19763;55.798;37.782;2024-03-17T04:25:28;42.05;;;19.05;;
33421;SDS011;19763;55.798;37.782;2024-03-17T04:28:00;37.10;;;18.42;;
33421;SDS011;19763;55.798;37.782;2024-03-17T04:33:54;48.85;;;20.42;;
33421;SDS011;19763;55.798;37.782;2024-03-17T04:42:14;38.00;;;18.50;;
33421;SDS011;19763;55.798;37.782;2024-03-17T04:45:27;42.08;;;18.50;;
33421;SDS011;19763;55.798;37.782;2024-03-17T04:47:53;41.83;;;19.67;;
33421;SDS011;19763;55.798;37.782;2024-03-17T04:51:02;35.65;;;19.20;;
33421;SDS011;19763;55.798;37.782;2024-03-17T05:03:22;43.60;;;19.67;;
33421;SDS011;19763;55.798;37.782;2024-03-17T05:06:00;41.85;;;17.98;;
33421;SDS011;19763;55.798;37.782;2024-03-17T05:08:45;39.17;;;17.45;;
33421;SDS011;19763;55.798;37.782;2024-03-17T05:11:22;41.65;;;18.48;;
33421;SDS011;19763;55.798;37.782;2024-03-17T05:17:47;50.00;;;18.77;;
33421;SDS011;19763;55.798;37.782;2024-03-17T05:24:21;41.90;;;19.75;;
33421;SDS011;19763;55.798;37.782;2024-03-17T05:26:55;48.22;;;20.55;;
33421;SDS011;19763;55.798;37.782;2024-03-17T05:29:27;42.28;;;19.63;;
33421;SDS011;19763;55.798;37.782;2024-03-17T05:38:03;44.78;;;19.65;;
33421;SDS011;19763;55.798;37.782;2024-03-17T05:41:07;44.58;;;20.80;;
33421;SDS011;19763;55.798;37.782;2024-03-17T05:43:35;36.60;;;20.33;;
33421;SDS011;19763;55.798;37.782;2024-03-17T05:53:25;42.42;;;21.83;;
33421;SDS011;19763;55.798;37.782;2024-03-17T05:55:53;43.72;;;20.65;;
33421;SDS011;19763;55.798;37.782;2024-03-17T05:58:23;50.38;;;22.95;;
33421;SDS011;19763;55.798;37.782;2024-03-17T06:11:00;51.15;;;20.75;;
33421;SDS011;19763;55.798;37.782;2024-03-17T06:13:38;50.65;;;21.10;;
33421;SDS011;19763;55.798;37.782;2024-03-17T06:16:07;40.22;;;20.58;;
33421;SDS011;19763;55.798;37.782;2024-03-17T06:18:47;47.90;;;21.25;;
33421;SDS011;19763;55.798;37.782;2024-03-17T06:21:43;46.92;;;19.67;;
33421;SDS011;19763;55.798;37.782;2024-03-17T06:27:22;47.05;;;19.92;;
33421;SDS011;19763;55.798;37.782;2024-03-17T06:43:22;43.20;;;21.23;;
33421;SDS011;19763;55.798;37.782;2024-03-17T06:46:09;48.38;;;20.55;;
33421;SDS011;19763;55.798;37.782;2024-03-17T06:48:42;59.92;;;21.20;;
33421;SDS011;19763;55.798;37.782;2024-03-17T06:54:12;52.45;;;19.52;;
33421;SDS011;19763;55.798;37.782;2024-03-17T06:59:34;53.97;;;20.20;;
33421;SDS011;19763;55.798;37.782;2024-03-17T07:02:14;54.00;;;20.02;;
33421;SDS011;19763;55.798;37.782;2024-03-17T07:04:58;53.53;;;19.17;;
33421;SDS011;19763;55.798;37.782;2024-03-17T07:07:39;57.97;;;19.33;;
33421;SDS011;19763;55.798;37.782;2024-03-17T07:16:35;49.40;;;18.15;;
33421;SDS011;19763;55.798;37.782;2024-03-17T07:22:49;53.40;;;18.30;;
33421;SDS011;19763;55.798;37.782;2024-03-17T07:25:15;47.80;;;18.02;;
33421;SDS011;19763;55.798;37.782;2024-03-17T07:30:53;59.22;;;18.23;;
33421;SDS011;19763;55.798;37.782;2024-03-17T07:33:26;52.05;;;17.85;;
33421;SDS011;19763;55.798;37.782;2024-03-17T07:36:23;55.08;;;17.85;;
33421;SDS011;19763;55.798;37.782;2024-03-17T07:38:51;58.10;;;18.60;;
33421;SDS011;19763;55.798;37.782;2024-03-17T07:41:25;52.35;;;17.58;;
33421;SDS011;19763;55.798;37.782;2024-03-17T07:47:39;56.10;;;17.40;;
33421;SDS011;19763;55.798;37.782;2024-03-17T07:50:13;52.65;;;19.38;;
33421;SDS011;19763;55.798;37.782;2024-03-17T07:52:51;54.03;;;18.80;;
33421;SDS011;19763;55.798;37.782;2024-03-17T07:55:38;53.03;;;19.08;;
33421;SDS011;19763;55.798;37.782;2024-03-17T07:58:28;68.25;;;20.27;;
33421;SDS011;19763;55.798;37.782;2024-03-17T08:04:27;57.22;;;20.75;;
33421;SDS011;19763;55.798;37.782;2024-03-17T08:06:52;52.35;;;20.20;;
33421;SDS011;19763;55.798;37.782;2024-03-17T08:13:02;56.30;;;20.80;;
33421;SDS011;19763;55.798;37.782;2024-03-17T08:18:59;65.68;;;23.23;;
33421;SDS011;19763;55.798;37.782;2024-03-17T08:21:31;60.58;;;22.95;;
33421;SDS011;19763;55.798;37.782;2024-03-17T08:23:56;60.30;;;22.55;;
33421;SDS011;19763;55.798;37.782;2024-03-17T08:26:53;63.05;;;23.55;;
33421;SDS011;19763;55.798;37.782;2024-03-17T08:29:27;66.43;;;22.67;;
33421;SDS011;19763;55.798;37.782;2024-03-17T08:35:14;75.57;;;28.50;;
33421;SDS011;19763;55.798;37.782;2024-03-17T08:37:43;47.13;;;21.40;;
33421;SDS011;19763;55.798;37.782;2024-03-17T08:43:21;56.22;;;22.17;;
33421;SDS011;19763;55.798;37.782;2024-03-17T08:46:17;44.45;;;22.27;;
33421;SDS011;19763;55.798;37.782;2024-03-17T08:48:49;57.85;;;22.63;;
33421;SDS011;19763;55.798;37.782;2024-03-17T08:51:34;55.35;;;22.80;;
33421;SDS011;19763;55.798;37.782;2024-03-17T08:54:08;89.68;;;42.35;;
33421;SDS011;19763;55.798;37.782;2024-03-17T08:56:51;56.38;;;22.48;;
33421;SDS011;19763;55.798;37.782;2024-03-17T09:02:56;57.53;;;23.00;;
33421;SDS011;19763;55.798;37.782;2024-03-17T09:09:01;57.55;;;23.63;;
33421;SDS011;19763;55.798;37.782;2024-03-17T09:11:41;73.90;;;28.48;;
33421;SDS011;19763;55.798;37.782;2024-03-17T09:21:08;63.13;;;24.52;;
33421;SDS011;19763;55.798;37.782;2024-03-17T09:24:11;54.63;;;22.92;;
33421;SDS011;19763;55.798;37.782;2024-03-17T09:26:42;52.22;;;23.48;;
33421;SDS011;19763;55.798;37.782;2024-03-17T09:29:11;63.80;;;23.92;;
33421;SDS011;19763;55.798;37.782;2024-03-17T09:32:01;52.00;;;22.02;;
33421;SDS011;19763;55.798;37.782;2024-03-17T09:34:41;69.53;;;23.02;;
33421;SDS011;19763;55.798;37.782;2024-03-17T09:37:15;73.85;;;23.73;;
33421;SDS011;19763;55.798;37.782;2024-03-17T09:40:03;66.32;;;22.13;;
33421;SDS011;19763;55.798;37.782;2024-03-17T09:42:37;63.95;;;21.77;;
33421;SDS011;19763;55.798;37.782;2024-03-17T09:45:06;56.97;;;20.10;;
33421;SDS011;19763;55.798;37.782;2024-03-17T09:47:47;55.92;;;21.30;;
33421;SDS011;19763;55.798;37.782;2024-03-17T09:50:21;59.33;;;20.25;;
33421;SDS011;19763;55.798;37.782;2024-03-17T09:58:47;53.88;;;19.80;;
33421;SDS011;19763;55.798;37.782;2024-03-17T10:01:33;61.88;;;19.95;;
33421;SDS011;19763;55.798;37.782;2024-03-17T10:04:14;65.68;;;18.85;;
33421;SDS011;19763;55.798;37.782;2024-03-17T10:06:59;62.55;;;20.02;;
33421;SDS011;19763;55.798;37.782;2024-03-17T10:12:25;57.80;;;18.70;;
33421;SDS011;19763;55.798;37.782;2024-03-17T10:14:58;69.10;;;19.38;;
33421;SDS011;19763;55.798;37.782;2024-03-17T10:17:31;57.67;;;18.63;;
33421;SDS011;19763;55.798;37.782;2024-03-17T10:23:03;53.05;;;18.58;;
33421;SDS011;19763;55.798;37.782;2024-03-17T10:28:52;59.28;;;16.58;;
33421;SDS011;19763;55.798;37.782;2024-03-17T10:31:23;55.13;;;17.65;;
33421;SDS011;19763;55.798;37.782;2024-03-17T10:34:13;44.00;;;15.43;;
33421;SDS011;19763;55.798;37.782;2024-03-17T10:36:46;50.08;;;14.18;;
33421;SDS011;19763;55.798;37.782;2024-03-17T10:39:25;49.40;;;14.27;;
33421;SDS011;19763;55.798;37.782;2024-03-17T10:42:02;42.40;;;14.73;;
33421;SDS011;19763;55.798;37.782;2024-03-17T10:44:51;43.60;;;12.60;;
33421;SDS011;19763;55.798;37.782;2024-03-17T10:47:23;35.60;;;11.73;;
33421;SDS011;19763;55.798;37.782;2024-03-17T10:53:27;41.22;;;12.38;;
33421;SDS011;19763;55.798;37.782;2024-03-17T10:56:04;41.13;;;12.90;;
33421;SDS011;19763;55.798;37.782;2024-03-17T10:58:44;46.60;;;12.90;;
33421;SDS011;19763;55.798;37.782;2024-03-17T11:11:12;44.53;;;13.32;;
33421;SDS011;19763;55.798;37.782;2024-03-17T11:14:25;45.05;;;13.63;;
33421;SDS011;19763;55.798;37.782;2024-03-17T11:17:19;46.58;;;13.80;;
33421;SDS011;19763;55.798;37.782;2024-03-17T11:20:13;40.13;;;12.45;;
33421;SDS011;19763;55.798;37.782;2024-03-17T11:26:33;37.60;;;11.27;;
33421;SDS011;19763;55.798;37.782;2024-03-17T11:32:24;34.65;;;11.00;;
33421;SDS011;19763;55.798;37.782;2024-03-17T11:35:12;37.97;;;9.85;;
33421;SDS011;19763;55.798;37.782;2024-03-17T11:37:56;34.53;;;10.27;;
33421;SDS011;19763;55.798;37.782;2024-03-17T11:47:52;25.80;;;10.18;;
33421;SDS011;19763;55.798;37.782;2024-03-17T11:50:34;36.08;;;11.07;;
33421;SDS011;19763;55.798;37.782;2024-03-17T11:53:05;36.17;;;10.80;;
33421;SDS011;19763;55.798;37.782;2024-03-17T11:55:54;36.58;;;10.07;;
33421;SDS011;19763;55.798;37.782;2024-03-17T11:58:32;33.53;;;11.27;;
33421;SDS011;19763;55.798;37.782;2024-03-17T12:03:57;32.38;;;9.95;;
33421;SDS011;19763;55.798;37.782;2024-03-17T12:06:30;30.25;;;10.05;;
33421;SDS011;19763;55.798;37.782;2024-03-17T12:15:42;42.07;;;9.80;;
33421;SDS011;19763;55.798;37.782;2024-03-17T12:21:27;35.67;;;9.93;;
33421;SDS011;19763;55.798;37.782;2024-03-17T12:24:15;29.02;;;9.70;;
33421;SDS011;19763;55.798;37.782;2024-03-17T12:32:50;24.88;;;9.10;;
33421;SDS011;19763;55.798;37.782;2024-03-17T12:35:47;24.70;;;9.07;;
33421;SDS011;19763;55.798;37.782;2024-03-17T12:38:26;29.77;;;8.80;;
33421;SDS011;19763;55.798;37.782;2024-03-17T12:41:16;30.63;;;9.32;;
33421;SDS011;19763;55.798;37.782;2024-03-17T12:46:28;26.90;;;9.73;;
33421;SDS011;19763;55.798;37.782;2024-03-17T12:52:34;32.83;;;9.70;;
33421;SDS011;19763;55.798;37.782;2024-03-17T12:55:21;27.83;;;9.55;;
33421;SDS011;19763;55.798;37.782;2024-03-17T12:58:18;29.60;;;9.75;;
33421;SDS011;19763;55.798;37.782;2024-03-17T13:01:05;28.05;;;9.50;;
33421;SDS011;19763;55.798;37.782;2024-03-17T13:03:43;30.30;;;9.95;;
33421;SDS011;19763;55.798;37.782;2024-03-17T13:06:55;24.25;;;9.32;;
33421;SDS011;19763;55.798;37.782;2024-03-17T13:10:17;32.03;;;10.00;;
33421;SDS011;19763;55.798;37.782;2024-03-17T13:25:56;38.38;;;9.88;;
33421;SDS011;19763;55.798;37.782;2024-03-17T13:28:41;35.10;;;9.85;;
33421;SDS011;19763;55.798;37.782;2024-03-17T13:31:28;35.10;;;9.57;;
33421;SDS011;19763;55.798;37.782;2024-03-17T13:33:53;35.75;;;9.75;;
33421;SDS011;19763;55.798;37.782;2024-03-17T13:36:34;39.85;;;9.18;;
33421;SDS011;19763;55.798;37.782;2024-03-17T13:45:20;35.17;;;9.07;;
33421;SDS011;19763;55.798;37.782;2024-03-17T13:48:00;35.15;;;9.85;;
33421;SDS011;19763;55.798;37.782;2024-03-17T13:51:08;34.38;;;10.45;;
33421;SDS011;19763;55.798;37.782;2024-03-17T13:56:52;42.00;;;10.65;;
33421;SDS011;19763;55.798;37.782;2024-03-17T13:59:19;41.78;;;9.85;;
33421;SDS011;19763;55.798;37.782;2024-03-17T14:01:50;47.22;;;10.73;;
33421;SDS011;19763;55.798;37.782;2024-03-17T14:04:27;38.95;;;9.73;;
33421;SDS011;19763;55.798;37.782;2024-03-17T14:07:05;37.28;;;9.88;;
33421;SDS011;19763;55.798;37.782;2024-03-17T14:09:49;38.72;;;9.85;;
33421;SDS011;19763;55.798;37.782;2024-03-17T14:12:34;48.25;;;10.35;;
33421;SDS011;19763;55.798;37.782;2024-03-17T14:15:22;41.55;;;9.85;;
33421;SDS011;19763;55.798;37.782;2024-03-17T14:17:51;42.42;;;10.55;;
33421;SDS011;19763;55.798;37.782;2024-03-17T14:20:22;34.28;;;9.35;;
33421;SDS011;19763;55.798;37.782;2024-03-17T14:29:33;42.92;;;9.38;;
33421;SDS011;19763;55.798;37.782;2024-03-17T14:32:17;40.00;;;9.85;;
33421;SDS011;19763;55.798;37.782;2024-03-17T14:34:58;44.17;;;9.98;;
33421;SDS011;19763;55.798;37.782;2024-03-17T14:37:48;34.50;;;10.60;;
33421;SDS011;19763;55.798;37.782;2024-03-17T14:40:47;36.88;;;9.65;;
33421;SDS011;19763;55.798;37.782;2024-03-17T14:46:57;42.28;;;11.43;;
33421;SDS011;19763;55.798;37.782;2024-03-17T14:53:21;39.67;;;12.00;;
33421;SDS011;19763;55.798;37.782;2024-03-17T14:58:40;36.42;;;10.85;;
33421;SDS011;19763;55.798;37.782;2024-03-17T15:04:31;31.15;;;9.93;;
33421;SDS011;19763;55.798;37.782;2024-03-17T15:16:41;48.40;;;13.05;;
33421;SDS011;19763;55.798;37.782;2024-03-17T15:22:13;49.10;;;13.02;;
33421;SDS011;19763;55.798;37.782;2024-03-17T15:24:39;45.42;;;12.45;;
33421;SDS011;19763;55.798;37.782;2024-03-17T15:27:11;53.65;;;14.27;;
33421;SDS011;19763;55.798;37.782;2024-03-17T15:29:51;59.50;;;14.95;;
33421;SDS011;19763;55.798;37.782;2024-03-17T15:32:23;46.88;;;13.05;;
33421;SDS011;19763;55.798;37.782;2024-03-17T15:34:49;45.35;;;12.75;;
33421;SDS011;19763;55.798;37.782;2024-03-17T15:40:45;47.63;;;14.75;;
33421;SDS011;19763;55.798;37.782;2024-03-17T15:43:11;52.78;;;15.50;;
33421;SDS011;19763;55.798;37.782;2024-03-17T15:45:37;54.83;;;13.73;;
33421;SDS011;19763;55.798;37.782;2024-03-17T15:48:21;44.17;;;13.27;;
33421;SDS011;19763;55.798;37.782;2024-03-17T15:50:56;51.58;;;15.02;;
33421;SDS011;19763;55.798;37.782;2024-03-17T15:53:34;50.28;;;14.07;;
33421;SDS011;19763;55.798;37.782;2024-03-17T15:59:27;48.55;;;14.68;;
33421;SDS011;19763;55.798;37.782;2024-03-17T16:01:52;43.42;;;14.32;;
33421;SDS011;19763;55.798;37.782;2024-03-17T16:04:18;47.42;;;13.48;;
33421;SDS011;19763;55.798;37.782;2024-03-17T16:06:49;46.67;;;14.52;;
33421;SDS011;19763;55.798;37.782;2024-03-17T16:09:25;43.55;;;13.25;;
33421;SDS011;19763;55.798;37.782;2024-03-17T16:11:51;55.63;;;14.95;;
33421;SDS011;19763;55.798;37.782;2024-03-17T16:14:48;46.83;;;13.55;;
33421;SDS011;19763;55.798;37.782;2024-03-17T16:17:31;49.20;;;15.27;;
33421;SDS011;19763;55.798;37.782;2024-03-17T16:20:09;42.75;;;14.40;;
33421;SDS011;19763;55.798;37.782;2024-03-17T16:23:09;47.25;;;14.13;;
33421;SDS011;19763;55.798;37.782;2024-03-17T16:25:35;40.58;;;14.25;;
33421;SDS011;19763;55.798;37.782;2024-03-17T16:28:04;58.95;;;15.43;;
33421;SDS011;19763;55.798;37.782;2024-03-17T16:30:43;60.45;;;14.55;;
33421;SDS011;19763;55.798;37.782;2024-03-17T16:33:23;38.55;;;13.13;;
33421;SDS011;19763;55.798;37.782;2024-03-17T16:35:52;54.58;;;14.38;;
33421;SDS011;19763;55.798;37.782;2024-03-17T16:38:30;47.25;;;14.82;;
33421;SDS011;19763;55.798;37.782;2024-03-17T16:41:05;56.10;;;15.23;;
33421;SDS011;19763;55.798;37.782;2024-03-17T16:49:17;47.50;;;14.93;;
33421;SDS011;19763;55.798;37.782;2024-03-17T16:51:47;48.13;;;13.07;;
33421;SDS011;19763;55.798;37.782;2024-03-17T16:54:14;52.42;;;14.13;;
33421;SDS011;19763;55.798;37.782;2024-03-17T16:56:56;45.53;;;13.15;;
33421;SDS011;19763;55.798;37.782;2024-03-17T16:59:50;48.67;;;14.27;;
33421;SDS011;19763;55.798;37.782;2024-03-17T17:02:18;52.97;;;14.88;;
33421;SDS011;19763;55.798;37.782;2024-03-17T17:04:50;45.17;;;14.00;;
33421;SDS011;19763;55.798;37.782;2024-03-17T17:07:56;50.30;;;13.60;;
33421;SDS011;19763;55.798;37.782;2024-03-17T17:10:28;48.42;;;14.00;;
33421;SDS011;19763;55.798;37.782;2024-03-17T17:15:37;44.05;;;13.63;;
33421;SDS011;19763;55.798;37.782;2024-03-17T17:21:41;53.58;;;14.15;;
33421;SDS011;19763;55.798;37.782;2024-03-17T17:24:17;46.83;;;13.93;;
33421;SDS011;19763;55.798;37.782;2024-03-17T17:27:06;50.57;;;14.07;;
33421;SDS011;19763;55.798;37.782;2024-03-17T17:32:55;50.70;;;14.43;;
33421;SDS011;19763;55.798;37.782;2024-03-17T17:35:51;50.78;;;15.00;;
33421;SDS011;19763;55.798;37.782;2024-03-17T17:41:39;52.25;;;14.60;;
33421;SDS011;19763;55.798;37.782;2024-03-17T17:44:13;50.80;;;13.80;;
33421;SDS011;19763;55.798;37.782;2024-03-17T17:46:42;54.92;;;14.73;;
33421;SDS011;19763;55.798;37.782;2024-03-17T17:49:13;52.33;;;13.73;;
33421;SDS011;19763;55.798;37.782;2024-03-17T17:58:27;49.80;;;14.60;;
33421;SDS011;19763;55.798;37.782;2024-03-17T18:01:24;53.38;;;15.10;;
33421;SDS011;19763;55.798;37.782;2024-03-17T18:03:52;56.65;;;15.27;;
33421;SDS011;19763;55.798;37.782;2024-03-17T18:06:23;62.13;;;14.50;;
33421;SDS011;19763;55.798;37.782;2024-03-17T18:12:28;55.13;;;16.15;;
33421;SDS011;19763;55.798;37.782;2024-03-17T18:15:05;47.50;;;15.18;;
33421;SDS011;19763;55.798;37.782;2024-03-17T18:20:31;45.17;;;14.27;;
33421;SDS011;19763;55.798;37.782;2024-03-17T18:23:12;60.05;;;15.02;;
33421;SDS011;19763;55.798;37.782;2024-03-17T18:25:50;62.42;;;15.85;;
33421;SDS011;19763;55.798;37.782;2024-03-17T18:29:06;43.92;;;13.90;;
33421;SDS011;19763;55.798;37.782;2024-03-17T18:38:27;59.05;;;13.98;;
33421;SDS011;19763;55.798;37.782;2024-03-17T18:41:18;58.27;;;14.97;;
33421;SDS011;19763;55.798;37.782;2024-03-17T18:43:53;60.58;;;16.23;;
33421;SDS011;19763;55.798;37.782;2024-03-17T18:46:38;62.67;;;17.38;;
33421;SDS011;19763;55.798;37.782;2024-03-17T18:49:03;58.17;;;15.25;;
33421;SDS011;19763;55.798;37.782;2024-03-17T18:51:34;58.53;;;15.10;;
33421;SDS011;19763;55.798;37.782;2024-03-17T18:57:18;58.90;;;14.93;;
33421;SDS011;19763;55.798;37.782;2024-03-17T19:26:17;61.22;;;18.13;;
33421;SDS011;19763;55.798;37.782;2024-03-17T19:29:42;50.80;;;16.10;;
33421;SDS011;19763;55.798;37.782;2024-03-17T19:38:39;58.15;;;16.40;;
33421;SDS011;19763;55.798;37.782;2024-03-17T19:41:54;57.60;;;17.77;;
33421;SDS011;19763;55.798;37.782;2024-03-17T19:44:30;58.72;;;18.65;;
33421;SDS011;19763;55.798;37.782;2024-03-17T19:53:10;50.92;;;17.23;;
33421;SDS011;19763;55.798;37.782;2024-03-17T19:56:23;62.95;;;17.00;;
33421;SDS011;19763;55.798;37.782;2024-03-17T19:58:52;59.30;;;18.73;;
33421;SDS011;19763;55.798;37.782;2024-03-17T20:01:29;66.25;;;17.95;;
33421;SDS011;19763;55.798;37.782;2024-03-17T20:07:25;65.80;;;18.03;;
33421;SDS011;19763;55.798;37.782;2024-03-17T20:13:40;52.35;;;19.17;;
33421;SDS011;19763;55.798;37.782;2024-03-17T20:18:49;53.95;;;18.38;;
33421;SDS011;19763;55.798;37.782;2024-03-17T20:22:00;47.13;;;17.08;;
33421;SDS011;19763;55.798;37.782;2024-03-17T20:25:03;61.38;;;20.27;;
33421;SDS011;19763;55.798;37.782;2024-03-17T20:27:39;55.95;;;19.20;;
33421;SDS011;19763;55.798;37.782;2024-03-17T20:30:07;66.82;;;20.15;;
33421;SDS011;19763;55.798;37.782;2024-03-17T20:36:07;54.35;;;19.05;;
33421;SDS011;19763;55.798;37.782;2024-03-17T20:45:54;57.83;;;20.00;;
33421;SDS011;19763;55.798;37.782;2024-03-17T20:48:22;65.57;;;20.30;;
33421;SDS011;19763;55.798;37.782;2024-03-17T20:51:03;60.45;;;18.90;;
33421;SDS011;19763;55.798;37.782;2024-03-17T20:59:59;56.95;;;21.00;;
33421;SDS011;19763;55.798;37.782;2024-03-17T21:02:27;54.65;;;20.33;;
33421;SDS011;19763;55.798;37.782;2024-03-17T21:05:05;51.70;;;19.80;;
33421;SDS011;19763;55.798;37.782;2024-03-17T21:10:31;59.38;;;20.70;;
33421;SDS011;19763;55.798;37.782;2024-03-17T21:16:21;68.65;;;21.58;;
33421;SDS011;19763;55.798;37.782;2024-03-17T21:18:55;59.75;;;20.77;;
33421;SDS011;19763;55.798;37.782;2024-03-17T21:21:42;62.22;;;21.15;;
33421;SDS011;19763;55.798;37.782;2024-03-17T21:24:39;63.60;;;20.95;;
33421;SDS011;19763;55.798;37.782;2024-03-17T21:42:59;61.25;;;22.10;;
33421;SDS011;19763;55.798;37.782;2024-03-17T21:49:17;66.10;;;23.95;;
33421;SDS011;19763;55.798;37.782;2024-03-17T21:51:45;54.22;;;21.75;;
33421;SDS011;19763;55.798;37.782;2024-03-17T21:54:11;52.30;;;22.08;;
33421;SDS011;19763;55.798;37.782;2024-03-17T22:03:19;56.25;;;22.10;;
33421;SDS011;19763;55.798;37.782;2024-03-17T22:09:13;66.07;;;22.90;;
33421;SDS011;19763;55.798;37.782;2024-03-17T22:11:44;62.10;;;22.30;;
33421;SDS011;19763;55.798;37.782;2024-03-17T22:14:19;57.50;;;23.23;;
33421;SDS011;19763;55.798;37.782;2024-03-17T22:20:34;53.50;;;22.55;;
33421;SDS011;19763;55.798;37.782;2024-03-17T22:23:15;68.93;;;24.48;;
33421;SDS011;19763;55.798;37.782;2024-03-17T22:25:53;59.40;;;23.55;;
33421;SDS011;19763;55.798;37.782;2024-03-17T22:28:40;68.45;;;24.60;;
33421;SDS011;19763;55.798;37.782;2024-03-17T22:38:03;55.67;;;23.60;;
33421;SDS011;19763;55.798;37.782;2024-03-17T22:40:29;67.25;;;25.25;;
33421;SDS011;19763;55.798;37.782;2024-03-17T22:43:16;67.40;;;24.52;;
33421;SDS011;19763;55.798;37.782;2024-03-17T22:45:58;59.45;;;22.85;;
33421;SDS011;19763;55.798;37.782;2024-03-17T22:51:31;51.63;;;22.73;;
33421;SDS011;19763;55.798;37.782;2024-03-17T22:54:08;64.18;;;23.80;;
33421;SDS011;19763;55.798;37.782;2024-03-17T22:59:21;60.90;;;23.75;;
33421;SDS011;19763;55.798;37.782;2024-03-17T23:08:13;67.18;;;25.77;;
33421;SDS011;19763;55.798;37.782;2024-03-17T23:10:54;61.30;;;25.17;;
33421;SDS011;19763;55.798;37.782;2024-03-17T23:13:23;61.63;;;25.30;;
33421;SDS011;19763;55.798;37.782;2024-03-17T23:15:54;61.42;;;24.25;;
33421;SDS011;19763;55.798;37.782;2024-03-17T23:18:53;59.08;;;24.40;;
33421;SDS011;19763;55.798;37.782;2024-03-17T23:21:49;64.15;;;24.00;;
33421;SDS011;19763;55.798;37.782;2024-03-17T23:24:33;66.45;;;25.42;;
33421;SDS011;19763;55.798;37.782;2024-03-17T23:27:02;66.47;;;26.08;;
33421;SDS011;19763;55.798;37.782;2024-03-17T23:29:48;66.17;;;24.80;;
33421;SDS011;19763;55.798;37.782;2024-03-17T23:35:13;67.43;;;25.52;;
33421;SDS011;19763;55.798;37.782;2024-03-17T23:37:58;65.78;;;24.42;;
33421;SDS011;19763;55.798;37.782;2024-03-17T23:41:04;57.80;;;24.25;;
33421;SDS011;19763;55.798;37.782;2024-03-17T23:43:39;74.15;;;27.27;;
33421;SDS011;19763;55.798;37.782;2024-03-17T23:46:07;62.63;;;26.50;;
33421;SDS011;19763;55.798;37.782;2024-03-17T23:48:57;66.72;;;26.17;;
33421;SDS011;19763;55.798;37.782;2024-03-17T23:52:08;66.80;;;26.35;;
33421;SDS011;19763;55.798;37.782;2024-03-17T23:58:23;60.17;;;25.48;;
